createdAt,value
2022-08-14T00:01:32.162Z,15.90
2022-08-14T00:03:59.574Z,15.90
2022-08-14T00:06:29.085Z,16.10
2022-08-14T00:08:58.941Z,16.10
2022-08-14T00:11:31.237Z,16.00
2022-08-14T00:14:03.682Z,16.10
2022-08-14T00:16:41.106Z,16.10
2022-08-14T00:19:18.734Z,15.90
2022-08-14T00:21:51.694Z,15.70
2022-08-14T00:24:23.247Z,15.60
2022-08-14T00:27:01.778Z,15.50
2022-08-14T00:29:39.994Z,15.50
2022-08-14T00:33:01.689Z,15.50
2022-08-14T00:34:56.198Z,15.60
2022-08-14T00:37:23.613Z,15.60
2022-08-14T00:39:51.107Z,15.50
2022-08-14T00:42:55.348Z,15.40
2022-08-14T00:45:12.346Z,15.20
2022-08-14T00:47:45.175Z,15.10
2022-08-14T00:50:17.691Z,14.90
2022-08-14T00:52:55.864Z,14.90
2022-08-14T00:55:23.369Z,14.90
2022-08-14T00:58:10.413Z,14.80
2022-08-14T01:00:47.370Z,14.90
2022-08-14T01:03:20.189Z,15.00
2022-08-14T01:05:52.183Z,15.10
2022-08-14T01:08:51.834Z,15.10
2022-08-14T01:11:19.152Z,15.10
2022-08-14T01:13:55.743Z,15.10
2022-08-14T01:16:31.178Z,15.10
2022-08-14T01:19:17.307Z,15.10
2022-08-14T01:21:53.282Z,14.90
2022-08-14T01:24:30.645Z,14.60
2022-08-14T01:27:04.780Z,14.50
2022-08-14T01:29:59.410Z,14.40
2022-08-14T01:32:24.732Z,14.50
2022-08-14T01:35:20.334Z,14.60
2022-08-14T01:37:56.300Z,14.50
2022-08-14T01:40:36.116Z,14.60
2022-08-14T01:43:18.849Z,14.50
2022-08-14T01:46:06.204Z,14.40
2022-08-14T01:48:34.023Z,14.30
2022-08-14T01:51:19.321Z,14.10
2022-08-14T01:53:54.953Z,14.10
2022-08-14T01:56:39.748Z,14.20
2022-08-14T01:59:18.430Z,14.30
2022-08-14T02:01:51.227Z,14.40
2022-08-14T02:04:55.126Z,14.40
2022-08-14T02:07:34.408Z,14.50
2022-08-14T02:10:08.971Z,14.50
2022-08-14T02:12:40.912Z,14.50
2022-08-14T02:15:10.509Z,14.60
2022-08-14T02:17:37.533Z,14.60
2022-08-14T02:20:08.448Z,14.40
2022-08-14T02:22:35.670Z,14.00
2022-08-14T02:25:14.167Z,13.90
2022-08-14T02:28:22.592Z,14.00
2022-08-14T02:30:33.781Z,14.10
2022-08-14T02:33:01.577Z,14.10
2022-08-14T02:35:32.673Z,14.00
2022-08-14T02:38:00.901Z,13.90
2022-08-14T02:40:33.910Z,13.90
2022-08-14T02:43:03.449Z,13.70
2022-08-14T02:45:38.468Z,13.80
2022-08-14T02:49:03.985Z,13.90
2022-08-14T02:51:01.330Z,13.90
2022-08-14T02:53:33.289Z,13.80
2022-08-14T02:56:02.975Z,13.60
2022-08-14T02:58:33.328Z,13.70
2022-08-14T03:01:01.150Z,13.60
2022-08-14T03:03:31.769Z,13.60
2022-08-14T03:06:04.406Z,13.50
2022-08-14T03:08:33.671Z,13.40
2022-08-14T03:11:06.634Z,13.40
2022-08-14T03:13:35.864Z,13.50
2022-08-14T03:16:26.632Z,13.60
2022-08-14T03:19:00.539Z,13.60
2022-08-14T03:21:30.888Z,13.70
2022-08-14T03:24:01.721Z,13.70
2022-08-14T03:26:30.111Z,13.60
2022-08-14T03:29:01.148Z,13.60
2022-08-14T03:31:30.057Z,13.70
2022-08-14T03:33:59.852Z,13.70
2022-08-14T03:37:37.552Z,13.80
2022-08-14T03:39:22.551Z,13.70
2022-08-14T03:41:56.008Z,13.40
2022-08-14T03:45:20.233Z,13.40
2022-08-14T03:47:15.333Z,13.60
2022-08-14T03:49:43.884Z,13.60
2022-08-14T03:52:38.306Z,13.20
2022-08-14T03:55:00.228Z,13.10
2022-08-14T03:57:32.352Z,12.90
2022-08-14T04:00:06.292Z,12.80
2022-08-14T04:02:37.439Z,12.80
2022-08-14T04:05:12.039Z,12.90
2022-08-14T04:07:41.605Z,13.10
2022-08-14T04:10:17.843Z,13.30
2022-08-14T04:13:03.217Z,13.40
2022-08-14T04:15:56.450Z,13.30
2022-08-14T04:18:22.000Z,13.30
2022-08-14T04:20:54.467Z,13.30
2022-08-14T04:23:23.533Z,13.10
2022-08-14T04:25:54.265Z,13.10
2022-08-14T04:29:05.362Z,13.00
2022-08-14T04:31:09.386Z,12.90
2022-08-14T04:33:38.518Z,12.90
2022-08-14T04:36:06.025Z,12.90
2022-08-14T04:38:54.818Z,12.90
2022-08-14T04:41:53.311Z,12.90
2022-08-14T04:44:35.716Z,13.10
2022-08-14T04:47:23.687Z,13.10
2022-08-14T04:49:56.987Z,13.10
2022-08-14T04:52:25.059Z,13.30
2022-08-14T04:54:52.643Z,13.40
2022-08-14T04:57:21.884Z,13.50
2022-08-14T04:59:49.780Z,13.70
2022-08-14T05:02:18.030Z,13.80
2022-08-14T05:04:45.158Z,13.90
2022-08-14T05:07:12.343Z,14.10
2022-08-14T05:09:47.730Z,14.20
2022-08-14T05:13:13.511Z,14.30
2022-08-14T05:15:02.710Z,14.40
2022-08-14T05:17:43.857Z,14.50
2022-08-14T05:21:54.739Z,14.70
2022-08-14T05:22:59.694Z,14.80
2022-08-14T05:25:31.034Z,15.00
2022-08-14T05:28:16.268Z,15.10
2022-08-14T05:30:43.657Z,15.30
2022-08-14T05:33:12.657Z,15.30
2022-08-14T05:35:39.423Z,15.40
2022-08-14T05:38:22.306Z,15.60
2022-08-14T05:40:59.707Z,15.70
2022-08-14T05:43:40.739Z,15.90
2022-08-14T05:46:18.565Z,16.00
2022-08-14T05:48:49.133Z,16.30
2022-08-14T05:51:16.690Z,16.40
2022-08-14T05:53:43.779Z,16.50
2022-08-14T05:56:27.124Z,16.60
2022-08-14T05:58:56.187Z,16.80
2022-08-14T06:01:23.034Z,17.00
2022-08-14T06:03:50.900Z,17.10
2022-08-14T06:06:21.487Z,17.30
2022-08-14T06:08:48.259Z,17.50
2022-08-14T06:11:20.341Z,17.60
2022-08-14T06:13:58.549Z,17.80
2022-08-14T06:16:25.354Z,18.00
2022-08-14T06:18:52.929Z,18.10
2022-08-14T06:21:21.999Z,18.30
2022-08-14T06:23:49.593Z,18.40
2022-08-14T06:26:20.727Z,18.60
2022-08-14T06:28:52.249Z,18.80
2022-08-14T06:31:20.674Z,18.90
2022-08-14T06:35:03.456Z,19.00
2022-08-14T06:36:36.606Z,19.20
2022-08-14T06:39:03.843Z,19.30
2022-08-14T06:41:58.234Z,19.50
2022-08-14T06:44:21.994Z,19.70
2022-08-14T06:46:57.813Z,19.90
2022-08-14T06:49:27.081Z,20.20
2022-08-14T06:51:53.993Z,20.30
2022-08-14T06:54:21.039Z,20.40
2022-08-14T06:56:54.416Z,20.40
2022-08-14T06:59:23.759Z,20.70
2022-08-14T07:02:13.115Z,20.80
2022-08-14T07:04:59.412Z,20.90
2022-08-14T07:07:28.655Z,21.00
2022-08-14T07:09:55.663Z,21.10
2022-08-14T07:12:52.054Z,21.20
2022-08-14T07:15:10.397Z,21.40
2022-08-14T07:17:52.277Z,21.50
2022-08-14T07:20:30.805Z,21.60
2022-08-14T07:23:07.994Z,21.80
2022-08-14T07:25:37.922Z,21.90
2022-08-14T07:28:26.164Z,22.00
2022-08-14T07:31:04.665Z,22.00
2022-08-14T07:33:41.987Z,22.20
2022-08-14T07:36:26.530Z,22.30
2022-08-14T07:39:03.387Z,22.40
2022-08-14T07:41:42.479Z,22.60
2022-08-14T07:44:28.958Z,22.70
2022-08-14T07:46:58.055Z,22.70
2022-08-14T07:49:25.521Z,22.90
2022-08-14T07:51:52.404Z,23.20
2022-08-14T07:54:23.316Z,23.30
2022-08-14T07:57:00.742Z,23.40
2022-08-14T07:59:42.008Z,23.50
2022-08-14T08:02:18.480Z,23.50
2022-08-14T08:04:54.019Z,23.60
2022-08-14T08:07:23.867Z,23.80
2022-08-14T08:09:55.866Z,23.90
2022-08-14T08:12:29.530Z,24.00
2022-08-14T08:15:05.693Z,24.20
2022-08-14T08:17:39.018Z,24.40
2022-08-14T08:20:16.797Z,24.60
2022-08-14T08:22:56.006Z,24.60
2022-08-14T08:25:32.077Z,24.60
2022-08-14T08:28:25.455Z,24.60
2022-08-14T08:31:01.643Z,24.70
2022-08-14T08:33:37.098Z,24.80
2022-08-14T08:36:08.400Z,24.90
2022-08-14T08:39:18.537Z,24.90
2022-08-14T08:41:27.981Z,24.90
2022-08-14T08:44:05.714Z,24.90
2022-08-14T08:46:44.493Z,25.00
2022-08-14T08:49:15.203Z,25.00
2022-08-14T08:51:42.889Z,25.30
2022-08-14T08:54:19.704Z,25.40
2022-08-14T08:56:55.996Z,25.40
2022-08-14T08:59:27.168Z,25.60
2022-08-14T09:02:09.230Z,25.70
2022-08-14T09:04:45.873Z,25.80
2022-08-14T09:07:26.845Z,25.90
2022-08-14T09:09:59.531Z,25.90
2022-08-14T09:12:36.076Z,26.30
2022-08-14T09:15:11.527Z,26.30
2022-08-14T09:17:41.330Z,26.30
2022-08-14T09:20:11.568Z,26.60
2022-08-14T09:22:47.885Z,26.70
2022-08-14T09:25:16.787Z,26.70
2022-08-14T09:27:43.727Z,26.80
2022-08-14T09:30:31.336Z,26.80
2022-08-14T09:33:10.903Z,26.50
2022-08-14T09:36:13.189Z,26.20
2022-08-14T09:39:11.806Z,26.40
2022-08-14T09:42:20.612Z,26.60
2022-08-14T09:45:23.793Z,26.60
2022-08-14T09:47:53.400Z,27.00
2022-08-14T09:50:30.556Z,27.20
2022-08-14T09:53:05.270Z,27.00
2022-08-14T09:55:36.891Z,26.80
2022-08-14T09:58:19.768Z,27.00
2022-08-14T10:01:00.495Z,27.50
2022-08-14T10:03:35.482Z,27.80
2022-08-14T10:06:05.399Z,27.70
2022-08-14T10:08:44.351Z,27.30
2022-08-14T10:11:35.940Z,27.30
2022-08-14T10:14:29.086Z,27.40
2022-08-14T10:17:05.250Z,27.40
2022-08-14T10:19:35.402Z,27.80
2022-08-14T10:23:22.234Z,28.20
2022-08-14T10:25:00.505Z,28.20
2022-08-14T10:27:28.757Z,28.40
2022-08-14T10:30:00.649Z,28.60
2022-08-14T10:32:40.015Z,28.90
2022-08-14T10:35:16.595Z,29.10
2022-08-14T10:37:48.387Z,29.40
2022-08-14T10:40:44.103Z,29.70
2022-08-14T10:43:25.390Z,30.00
2022-08-14T10:46:03.855Z,30.10
2022-08-14T10:49:00.814Z,29.80
2022-08-14T10:51:33.859Z,29.60
2022-08-14T10:54:16.801Z,29.70
2022-08-14T10:57:15.749Z,30.10
2022-08-14T10:59:46.304Z,30.30
2022-08-14T11:02:44.593Z,30.30
2022-08-14T11:05:18.349Z,29.90
2022-08-14T11:08:02.554Z,29.80
2022-08-14T11:10:43.711Z,30.10
2022-08-14T11:13:21.216Z,30.50
2022-08-14T11:15:51.575Z,30.90
2022-08-14T11:18:20.385Z,31.10
2022-08-14T11:20:59.759Z,31.20
2022-08-14T11:23:38.526Z,31.40
2022-08-14T11:26:08.692Z,31.30
2022-08-14T11:28:47.482Z,31.60
2022-08-14T11:31:19.473Z,31.70
2022-08-14T11:33:50.175Z,31.90
2022-08-14T11:36:18.286Z,32.10
2022-08-14T11:38:46.577Z,32.00
2022-08-14T11:41:17.282Z,32.20
2022-08-14T11:43:58.055Z,32.40
2022-08-14T11:46:30.460Z,31.70
2022-08-14T11:49:06.353Z,30.80
2022-08-14T11:51:35.965Z,30.50
2022-08-14T11:54:19.635Z,30.30
2022-08-14T11:56:50.757Z,30.50
2022-08-14T11:59:19.849Z,31.20
2022-08-14T12:01:54.895Z,32.00
2022-08-14T12:04:32.178Z,31.80
2022-08-14T12:07:01.382Z,31.30
2022-08-14T12:09:37.383Z,30.80
2022-08-14T12:12:35.187Z,30.40
2022-08-14T12:15:04.322Z,29.90
2022-08-14T12:17:38.121Z,29.90
2022-08-14T12:20:15.137Z,30.10
2022-08-14T12:22:44.470Z,29.80
2022-08-14T12:25:24.788Z,29.40
2022-08-14T12:27:58.927Z,29.30
2022-08-14T12:30:42.912Z,28.90
2022-08-14T12:33:39.497Z,28.80
2022-08-14T12:36:21.011Z,28.70
2022-08-14T12:38:51.020Z,28.80
2022-08-14T12:41:23.987Z,28.80
2022-08-14T12:43:57.280Z,28.80
2022-08-14T12:46:40.583Z,28.70
2022-08-14T12:49:17.104Z,28.70
2022-08-14T12:51:56.703Z,28.50
2022-08-14T12:54:28.287Z,28.40
2022-08-14T12:57:19.702Z,28.30
2022-08-14T12:59:49.500Z,28.40
2022-08-14T13:02:25.999Z,28.40
2022-08-14T13:04:55.948Z,28.40
2022-08-14T13:07:26.456Z,28.60
2022-08-14T13:09:59.035Z,28.80
2022-08-14T13:12:33.468Z,28.80
2022-08-14T13:15:08.760Z,28.80
2022-08-14T13:17:51.292Z,28.90
2022-08-14T13:20:26.589Z,28.90
2022-08-14T13:22:54.896Z,29.00
2022-08-14T13:25:25.891Z,29.10
2022-08-14T13:27:59.348Z,29.00
2022-08-14T13:30:27.624Z,28.90
2022-08-14T13:32:57.982Z,29.10
2022-08-14T13:35:25.954Z,29.10
2022-08-14T13:37:54.085Z,29.50
2022-08-14T13:40:26.582Z,29.90
2022-08-14T13:42:56.791Z,30.50
2022-08-14T13:45:34.166Z,30.90
2022-08-14T13:48:30.609Z,31.70
2022-08-14T13:51:03.610Z,32.70
2022-08-14T13:53:33.741Z,33.90
2022-08-14T13:56:01.414Z,34.80
2022-08-14T13:58:34.610Z,36.00
2022-08-14T14:01:04.545Z,36.40
2022-08-14T14:03:35.574Z,37.00
2022-08-14T14:06:03.748Z,37.10
2022-08-14T14:08:45.863Z,37.80
2022-08-14T14:11:17.431Z,38.30
2022-08-14T14:13:46.716Z,36.40
2022-08-14T14:16:26.628Z,35.30
2022-08-14T14:19:06.695Z,34.70
2022-08-14T14:21:36.810Z,35.20
2022-08-14T14:24:05.447Z,36.50
2022-08-14T14:26:33.162Z,36.40
2022-08-14T14:29:01.631Z,36.50
2022-08-14T14:31:30.957Z,36.80
2022-08-14T14:34:07.773Z,37.40
2022-08-14T14:36:44.292Z,37.70
2022-08-14T14:39:20.487Z,37.40
2022-08-14T14:41:56.019Z,37.30
2022-08-14T14:44:32.537Z,37.50
2022-08-14T14:46:59.869Z,37.50
2022-08-14T14:49:42.139Z,37.90
2022-08-14T14:52:26.502Z,38.10
2022-08-14T14:54:59.079Z,38.40
2022-08-14T14:57:34.849Z,37.80
2022-08-14T15:00:12.664Z,37.90
2022-08-14T15:02:46.046Z,37.90
2022-08-14T15:05:16.036Z,37.30
2022-08-14T15:07:44.952Z,37.90
2022-08-14T15:10:27.055Z,38.60
2022-08-14T15:13:00.285Z,37.60
2022-08-14T15:15:30.495Z,37.60
2022-08-14T15:17:59.714Z,35.90
2022-08-14T15:20:30.208Z,34.40
2022-08-14T15:23:00.935Z,33.40
2022-08-14T15:25:35.418Z,33.50
2022-08-14T15:28:02.451Z,34.70
2022-08-14T15:30:32.231Z,35.40
2022-08-14T15:32:59.915Z,34.50
2022-08-14T15:35:29.681Z,33.40
2022-08-14T15:38:08.589Z,32.80
2022-08-14T15:40:41.254Z,32.30
2022-08-14T15:43:13.204Z,31.60
2022-08-14T15:45:41.106Z,31.80
2022-08-14T15:48:14.028Z,31.80
2022-08-14T15:50:50.735Z,32.50
2022-08-14T15:53:20.485Z,33.70
2022-08-14T15:55:48.450Z,34.20
2022-08-14T15:58:19.828Z,33.90
2022-08-14T16:01:07.643Z,33.80
2022-08-14T16:03:40.904Z,33.30
2022-08-14T16:06:17.439Z,33.90
2022-08-14T16:08:58.869Z,34.60
2022-08-14T16:11:28.811Z,35.30
2022-08-14T16:14:00.950Z,34.90
2022-08-14T16:16:48.064Z,35.30
2022-08-14T16:19:18.972Z,35.50
2022-08-14T16:22:01.640Z,35.60
2022-08-14T16:25:00.514Z,36.10
2022-08-14T16:27:37.845Z,36.30
2022-08-14T16:30:24.468Z,36.30
2022-08-14T16:32:54.585Z,35.50
2022-08-14T16:35:26.389Z,33.50
2022-08-14T16:38:29.407Z,32.90
2022-08-14T16:41:17.077Z,33.90
2022-08-14T16:43:45.363Z,34.60
2022-08-14T16:46:22.236Z,34.50
2022-08-14T16:48:54.867Z,34.60
2022-08-14T16:51:26.059Z,33.60
2022-08-14T16:53:58.955Z,32.60
2022-08-14T16:56:34.994Z,31.40
2022-08-14T16:59:12.452Z,30.60
2022-08-14T17:01:42.839Z,30.10
2022-08-14T17:04:24.900Z,29.50
2022-08-14T17:06:54.802Z,29.30
2022-08-14T17:09:27.906Z,29.10
2022-08-14T17:12:07.460Z,29.00
2022-08-14T17:15:09.874Z,28.80
2022-08-14T17:17:40.699Z,28.40
2022-08-14T17:20:39.456Z,28.30
2022-08-14T17:22:58.688Z,28.20
2022-08-14T17:25:37.028Z,28.20
2022-08-14T17:28:50.542Z,28.10
2022-08-14T17:31:02.466Z,28.10
2022-08-14T17:33:40.874Z,27.90
2022-08-14T17:36:23.214Z,27.90
2022-08-14T17:39:13.472Z,27.90
2022-08-14T17:41:47.693Z,27.90
2022-08-14T17:44:45.141Z,27.90
2022-08-14T17:47:14.718Z,27.80
2022-08-14T17:49:52.124Z,27.70
2022-08-14T17:52:34.698Z,27.70
2022-08-14T17:55:12.521Z,27.60
2022-08-14T17:57:57.502Z,27.50
2022-08-14T18:00:26.197Z,27.40
2022-08-14T18:02:54.334Z,27.30
2022-08-14T18:05:23.042Z,27.20
2022-08-14T18:08:31.233Z,27.10
2022-08-14T18:10:55.061Z,26.90
2022-08-14T18:13:50.103Z,26.80
2022-08-14T18:16:20.208Z,26.60
2022-08-14T18:18:51.238Z,26.40
2022-08-14T18:21:24.746Z,26.30
2022-08-14T18:24:20.337Z,26.20
2022-08-14T18:27:08.741Z,26.00
2022-08-14T18:29:43.669Z,25.90
2022-08-14T18:32:32.270Z,25.80
2022-08-14T18:35:16.946Z,25.60
2022-08-14T18:37:55.743Z,25.40
2022-08-14T18:40:34.738Z,25.40
2022-08-14T18:43:03.658Z,25.20
2022-08-14T18:45:41.298Z,24.90
2022-08-14T18:48:19.740Z,24.50
2022-08-14T18:50:48.797Z,24.10
2022-08-14T18:53:24.992Z,23.90
2022-08-14T18:56:02.034Z,23.80
2022-08-14T18:58:58.582Z,23.30
2022-08-14T19:01:29.947Z,23.20
2022-08-14T19:03:59.067Z,23.00
2022-08-14T19:06:37.865Z,22.90
2022-08-14T19:09:05.766Z,22.90
2022-08-14T19:11:34.255Z,22.70
2022-08-14T19:14:04.640Z,22.80
2022-08-14T19:16:34.985Z,22.80
2022-08-14T19:19:04.293Z,22.90
2022-08-14T19:21:38.444Z,22.80
2022-08-14T19:24:27.776Z,22.70
2022-08-14T19:27:24.082Z,22.60
2022-08-14T19:30:19.977Z,22.40
2022-08-14T19:32:53.040Z,22.30
2022-08-14T19:35:24.786Z,22.30
2022-08-14T19:38:32.535Z,22.20
2022-08-14T19:41:01.347Z,21.80
2022-08-14T19:43:50.717Z,21.60
2022-08-14T19:46:39.032Z,21.40
2022-08-14T19:49:08.695Z,21.30
2022-08-14T19:51:46.898Z,21.10
2022-08-14T19:54:16.303Z,21.00
2022-08-14T19:56:45.957Z,20.80
2022-08-14T19:59:19.083Z,20.80
2022-08-14T20:01:50.952Z,20.90
2022-08-14T20:04:47.290Z,20.90
2022-08-14T20:07:59.693Z,20.90
2022-08-14T20:11:08.565Z,20.90
2022-08-14T20:13:32.734Z,20.80
2022-08-14T20:16:11.863Z,20.80
2022-08-14T20:18:49.626Z,20.80
2022-08-14T20:21:18.297Z,20.60
2022-08-14T20:23:48.198Z,20.40
2022-08-14T20:26:30.748Z,20.40
2022-08-14T20:29:07.419Z,20.30
2022-08-14T20:31:37.632Z,20.20
2022-08-14T20:34:07.888Z,20.10
2022-08-14T20:36:46.323Z,20.10
2022-08-14T20:39:15.758Z,20.00
2022-08-14T20:41:49.858Z,19.90
2022-08-14T20:44:42.964Z,19.90
2022-08-14T20:47:16.144Z,19.70
2022-08-14T20:49:42.974Z,19.50
2022-08-14T20:52:14.754Z,19.50
2022-08-14T20:54:50.871Z,19.50
2022-08-14T20:57:18.976Z,19.40
2022-08-14T20:59:53.284Z,19.30
2022-08-14T21:02:34.599Z,19.30
2022-08-14T21:05:16.890Z,19.30
2022-08-14T21:07:51.420Z,19.30
2022-08-14T21:10:33.207Z,19.30
2022-08-14T21:13:25.907Z,19.30
2022-08-14T21:15:57.588Z,19.30
2022-08-14T21:18:28.727Z,19.30
2022-08-14T21:20:57.895Z,19.20
2022-08-14T21:23:25.021Z,19.20
2022-08-14T21:25:59.779Z,19.10
2022-08-14T21:28:30.632Z,19.20
2022-08-14T21:31:03.370Z,19.20
2022-08-14T21:33:30.253Z,19.10
2022-08-14T21:35:59.125Z,19.00
2022-08-14T21:38:33.536Z,18.80
2022-08-14T21:41:41.300Z,18.60
2022-08-14T21:44:17.154Z,18.20
2022-08-14T21:46:49.599Z,18.00
2022-08-14T21:49:33.853Z,17.90
2022-08-14T21:52:51.454Z,18.00
2022-08-14T21:54:58.078Z,17.80
2022-08-14T21:57:39.598Z,17.60
2022-08-14T22:00:34.656Z,17.60
2022-08-14T22:03:06.495Z,17.70
2022-08-14T22:05:39.354Z,17.70
2022-08-14T22:08:07.554Z,17.80
2022-08-14T22:10:42.444Z,17.90
2022-08-14T22:13:12.637Z,18.10
2022-08-14T22:15:43.651Z,18.10
2022-08-14T22:18:20.408Z,17.90
2022-08-14T22:20:48.201Z,17.70
2022-08-14T22:23:23.115Z,17.70
2022-08-14T22:25:52.302Z,17.60
2022-08-14T22:28:33.080Z,17.60
2022-08-14T22:31:03.206Z,17.40
2022-08-14T22:33:31.104Z,17.20
2022-08-14T22:35:59.310Z,17.30
2022-08-14T22:38:35.679Z,17.40
2022-08-14T22:41:26.178Z,17.40
2022-08-14T22:43:54.342Z,17.60
2022-08-14T22:46:21.344Z,17.60
2022-08-14T22:48:49.481Z,17.70
2022-08-14T22:51:19.295Z,17.60
2022-08-14T22:53:48.703Z,17.40
2022-08-14T22:56:21.913Z,17.10
2022-08-14T22:58:54.153Z,17.00
2022-08-14T23:01:56.676Z,16.80
2022-08-14T23:04:35.439Z,16.70
2022-08-14T23:07:21.734Z,16.80
2022-08-14T23:10:31.162Z,16.70
2022-08-14T23:12:54.442Z,16.60
2022-08-14T23:15:23.929Z,16.50
2022-08-14T23:17:51.081Z,16.60
2022-08-14T23:20:21.033Z,16.60
2022-08-14T23:22:51.253Z,16.60
2022-08-14T23:25:19.996Z,16.50
2022-08-14T23:28:33.603Z,16.40
2022-08-14T23:30:55.318Z,16.30
2022-08-14T23:33:22.166Z,16.40
2022-08-14T23:35:59.039Z,16.50
2022-08-14T23:38:30.326Z,16.50
2022-08-14T23:41:00.708Z,16.50
2022-08-14T23:43:31.412Z,16.60
2022-08-14T23:45:59.159Z,16.40
2022-08-14T23:48:28.546Z,16.50
2022-08-14T23:50:56.385Z,16.40
2022-08-14T23:53:47.903Z,16.30
2022-08-14T23:56:31.998Z,16.30
2022-08-14T23:59:00.955Z,16.20
